createdAt,value
2022-08-16T00:00:06.013Z,0.3
2022-08-16T00:04:53.551Z,0.2
2022-08-16T00:09:49.353Z,0.2
2022-08-16T00:14:49.312Z,0.3
2022-08-16T00:19:46.100Z,0.3
2022-08-16T00:24:52.312Z,0.3
2022-08-16T00:29:47.208Z,0.3
2022-08-16T00:34:55.226Z,0.3
2022-08-16T00:39:44.288Z,0.2
2022-08-16T00:44:43.482Z,0.2
2022-08-16T00:49:57.520Z,0.3
2022-08-16T00:54:45.513Z,0.2
2022-08-16T00:59:16.926Z,0.2
2022-08-16T01:04:31.867Z,0.3
2022-08-16T01:09:23.801Z,0.2
2022-08-16T01:14:30.892Z,0.2
2022-08-16T01:19:19.580Z,0.3
2022-08-16T01:24:56.364Z,0.2
2022-08-16T01:29:18.551Z,0.2
2022-08-16T01:34:27.898Z,0.2
2022-08-16T01:39:15.292Z,0.3
2022-08-16T01:44:20.332Z,0.2
2022-08-16T01:49:15.934Z,0.2
2022-08-16T01:54:16.815Z,0.2
2022-08-16T01:58:53.876Z,0.2
2022-08-16T02:03:53.594Z,0.2
2022-08-16T02:08:52.622Z,0.2
2022-08-16T02:13:56.634Z,0.2
2022-08-16T02:18:49.159Z,0.2
2022-08-16T02:23:56.541Z,0.2
2022-08-16T02:28:53.527Z,0.2
2022-08-16T02:33:52.282Z,0.2
2022-08-16T02:38:48.206Z,0.2
2022-08-16T02:43:46.489Z,0.2
2022-08-16T02:48:50.871Z,0.2
2022-08-16T02:53:45.601Z,0.2
2022-08-16T02:58:46.493Z,0.2
2022-08-16T03:04:54.952Z,0.2
2022-08-16T03:08:54.323Z,0.2
2022-08-16T03:13:43.761Z,0.2
2022-08-16T03:18:45.506Z,0.2
2022-08-16T03:23:39.958Z,0.2
2022-08-16T03:28:38.051Z,0.2
2022-08-16T03:33:36.636Z,0.2
2022-08-16T03:38:38.088Z,0.2
2022-08-16T03:43:54.826Z,0.2
2022-08-16T03:48:42.192Z,0.3
2022-08-16T03:53:39.418Z,0.3
2022-08-16T03:58:34.499Z,0.4
2022-08-16T04:03:33.751Z,0.5
2022-08-16T04:08:35.614Z,0.9
2022-08-16T04:14:34.079Z,1.3
2022-08-16T04:18:30.186Z,2.2
2022-08-16T04:23:28.836Z,3.4
2022-08-16T04:29:23.409Z,4.3
2022-08-16T04:33:28.882Z,5.6
2022-08-16T04:38:31.308Z,7.5
2022-08-16T04:43:30.062Z,9.5
2022-08-16T04:48:36.487Z,11
2022-08-16T04:53:27.565Z,15.7
2022-08-16T04:58:48.040Z,11.9
2022-08-16T04:59:44.663Z,12
2022-08-16T05:04:45.648Z,12.4
2022-08-16T05:09:50.740Z,13.4
2022-08-16T05:15:03.921Z,17.2
2022-08-16T05:19:59.528Z,20.4
2022-08-16T05:24:45.231Z,18.3
2022-08-16T05:30:37.128Z,19.2
2022-08-16T05:34:39.039Z,19.2
2022-08-16T05:39:42.596Z,26.9
2022-08-16T05:44:38.113Z,37.7
2022-08-16T05:49:41.766Z,40.9
2022-08-16T05:54:37.314Z,38.2
2022-08-16T05:59:13.872Z,40.2
2022-08-16T06:04:37.413Z,40.9
2022-08-16T06:09:19.515Z,33.3
2022-08-16T06:14:18.634Z,33.5
2022-08-16T06:19:17.320Z,37.9
2022-08-16T06:24:57.213Z,47.3
2022-08-16T06:29:18.515Z,59.1
2022-08-16T06:35:03.531Z,60.5
2022-08-16T06:39:15.437Z,67.6
2022-08-16T06:44:27.959Z,69.9
2022-08-16T06:49:07.001Z,73.8
2022-08-16T06:54:04.094Z,78.8
2022-08-16T06:58:53.161Z,78.4
2022-08-16T07:03:58.195Z,81.1
2022-08-16T07:08:52.020Z,84.8
2022-08-16T07:14:28.027Z,89.8
2022-08-16T07:19:03.795Z,94.9
2022-08-16T07:24:07.014Z,99.6
2022-08-16T07:28:48.536Z,108.6
2022-08-16T07:33:58.078Z,113
2022-08-16T07:38:47.555Z,401.6
2022-08-16T07:43:47.459Z,427.3
2022-08-16T07:48:49.515Z,448.3
2022-08-16T07:53:48.161Z,464.5
2022-08-16T07:58:47.711Z,479.2
2022-08-16T08:03:50.443Z,490.3
2022-08-16T08:08:59.280Z,506.8
2022-08-16T08:13:44.520Z,548.2
2022-08-16T08:19:00.809Z,157
2022-08-16T08:23:44.322Z,606.2
2022-08-16T08:28:41.734Z,590.1
2022-08-16T08:33:52.175Z,602.2
2022-08-16T08:38:47.222Z,647.2
2022-08-16T08:43:43.969Z,138.7
2022-08-16T08:48:44.783Z,495.1
2022-08-16T08:53:38.460Z,161.3
2022-08-16T08:58:36.394Z,658
2022-08-16T08:59:58.912Z,666.1
2022-08-16T09:04:58.951Z,650.4
2022-08-16T09:10:21.910Z,661.4
2022-08-16T09:14:55.968Z,681.5
2022-08-16T09:20:04.761Z,717.4
2022-08-16T09:25:14.560Z,743.8
2022-08-16T09:30:44.569Z,740
2022-08-16T09:34:53.621Z,747.5
2022-08-16T09:39:53.058Z,789
2022-08-16T09:45:19.395Z,133
2022-08-16T09:49:53.043Z,152.8
2022-08-16T09:54:52.299Z,786.8
2022-08-16T09:59:09.882Z,790.3
2022-08-16T10:04:28.864Z,817.8
2022-08-16T10:09:10.695Z,807.1
2022-08-16T10:13:59.714Z,824.9
2022-08-16T10:19:08.063Z,810.1
2022-08-16T10:23:57.249Z,809
2022-08-16T10:28:57.352Z,859.5
2022-08-16T10:33:55.298Z,881.5
2022-08-16T10:38:54.817Z,879.3
2022-08-16T10:43:56.144Z,864.3
2022-08-16T10:48:54.704Z,191.3
2022-08-16T10:53:56.750Z,208.3
2022-08-16T10:58:54.327Z,908.2
2022-08-16T11:03:59.959Z,871.4
2022-08-16T11:09:24.686Z,836.4
2022-08-16T11:14:12.761Z,836.9
2022-08-16T11:19:13.979Z,845
2022-08-16T11:24:01.225Z,846.1
2022-08-16T11:29:16.056Z,178.8
2022-08-16T11:33:56.294Z,561.6
2022-08-16T11:39:00.242Z,132.5
2022-08-16T11:43:46.277Z,892.7
2022-08-16T11:48:42.981Z,864.6
2022-08-16T11:53:42.518Z,850.6
2022-08-16T11:58:56.880Z,108.2
2022-08-16T12:03:43.662Z,831.1
2022-08-16T12:08:42.619Z,823.8
2022-08-16T12:13:40.099Z,821.3
2022-08-16T12:18:41.588Z,807.2
2022-08-16T12:23:39.942Z,789.8
2022-08-16T12:28:57.488Z,782
2022-08-16T12:33:46.179Z,802.7
2022-08-16T12:38:49.879Z,793.2
2022-08-16T12:43:37.487Z,786.4
2022-08-16T12:48:36.639Z,790
2022-08-16T12:53:34.857Z,796.8
2022-08-16T12:58:52.589Z,807.5
2022-08-16T12:59:57.861Z,787.2
2022-08-16T13:04:57.227Z,752.5
2022-08-16T13:09:56.054Z,773.5
2022-08-16T13:14:53.447Z,747.5
2022-08-16T13:20:12.265Z,735.2
2022-08-16T13:24:52.960Z,726.7
2022-08-16T13:29:59.015Z,716.3
2022-08-16T13:34:51.742Z,727.7
2022-08-16T13:39:52.021Z,586.9
2022-08-16T13:44:59.256Z,160.4
2022-08-16T13:49:49.260Z,167.1
2022-08-16T13:54:46.963Z,511
2022-08-16T13:59:22.187Z,672.6
2022-08-16T14:04:28.216Z,659.3
2022-08-16T14:09:21.803Z,628.6
2022-08-16T14:14:18.992Z,630.9
2022-08-16T14:19:13.814Z,614
2022-08-16T14:24:31.242Z,604.9
2022-08-16T14:29:12.859Z,592.4
2022-08-16T14:34:19.821Z,582.2
2022-08-16T14:39:18.169Z,568.8
2022-08-16T14:44:17.866Z,552.9
2022-08-16T14:49:17.786Z,537.7
2022-08-16T14:54:17.307Z,523
2022-08-16T14:58:57.087Z,509.4
2022-08-16T15:03:57.018Z,495.7
2022-08-16T15:08:55.978Z,478.4
2022-08-16T15:13:54.292Z,460.5
2022-08-16T15:18:51.811Z,445.8
2022-08-16T15:23:54.780Z,435.8
2022-08-16T15:28:52.713Z,423.2
2022-08-16T15:33:59.174Z,255.4
2022-08-16T15:39:39.542Z,230.5
2022-08-16T15:44:10.199Z,97.1
2022-08-16T15:48:52.440Z,69.2
2022-08-16T15:54:32.592Z,98.9
2022-08-16T15:58:56.477Z,340.4
2022-08-16T16:00:16.820Z,347.5
2022-08-16T16:05:14.703Z,362.1
2022-08-16T16:10:15.324Z,326.8
2022-08-16T16:15:13.844Z,294.4
2022-08-16T16:20:05.470Z,103.2
2022-08-16T16:25:05.283Z,102.5
2022-08-16T16:30:18.297Z,92.5
2022-08-16T16:35:02.567Z,81.6
2022-08-16T16:40:08.693Z,235.2
2022-08-16T16:45:04.080Z,65.8
2022-08-16T16:50:00.537Z,138.1
2022-08-16T16:54:59.737Z,55.8
2022-08-16T16:59:24.005Z,87
2022-08-16T17:04:27.499Z,83.3
2022-08-16T17:09:20.027Z,106.7
2022-08-16T17:14:35.713Z,151.2
2022-08-16T17:19:24.910Z,44.8
2022-08-16T17:24:39.534Z,67.4
2022-08-16T17:29:18.799Z,129.7
2022-08-16T17:39:31.166Z,105.4
2022-08-16T17:40:47.710Z,94.3
2022-08-16T17:44:14.827Z,83.8
2022-08-16T17:49:13.743Z,61.6
2022-08-16T17:54:32.604Z,24
2022-08-16T17:58:57.703Z,26
2022-08-16T18:04:11.270Z,17.2
2022-08-16T18:09:05.381Z,11.7
2022-08-16T18:13:59.494Z,7.9
2022-08-16T18:18:55.519Z,6.9
2022-08-16T18:23:54.517Z,4.6
2022-08-16T18:28:53.611Z,4.2
2022-08-16T18:33:56.903Z,3.3
2022-08-16T18:38:49.732Z,2.5
2022-08-16T18:44:34.677Z,1.7
2022-08-16T18:48:48.749Z,1.2
2022-08-16T18:53:48.403Z,0.8
2022-08-16T18:58:48.313Z,0.6
2022-08-16T19:00:18.006Z,0.5
2022-08-16T19:05:18.001Z,0.4
2022-08-16T19:10:15.085Z,0.4
2022-08-16T19:15:17.186Z,0.3
2022-08-16T19:20:14.279Z,0.3
2022-08-16T19:25:17.205Z,0.3
2022-08-16T19:30:13.722Z,0.3
2022-08-16T19:35:05.078Z,0.3
2022-08-16T19:40:04.450Z,0.3
2022-08-16T19:45:01.776Z,0.3
2022-08-16T19:50:00.642Z,0.3
2022-08-16T19:54:59.661Z,0.3
2022-08-16T19:59:40.974Z,0.3
2022-08-16T20:04:19.778Z,0.3
2022-08-16T20:09:20.275Z,0.3
2022-08-16T20:14:27.538Z,0.3
2022-08-16T20:19:18.729Z,0.3
2022-08-16T20:24:37.164Z,0.3
2022-08-16T20:29:16.313Z,0.3
2022-08-16T20:34:15.863Z,0.3
2022-08-16T20:39:15.105Z,0.3
2022-08-16T20:44:15.005Z,0.3
2022-08-16T20:49:14.160Z,0.3
2022-08-16T20:54:16.215Z,0.3
2022-08-16T20:59:02.970Z,0.3
2022-08-16T21:04:02.696Z,0.3
2022-08-16T21:09:00.576Z,0.3
2022-08-16T21:14:02.679Z,0.3
2022-08-16T21:18:58.449Z,0.3
2022-08-16T21:23:57.874Z,0.3
2022-08-16T21:28:57.265Z,0.3
2022-08-16T21:33:57.862Z,0.3
2022-08-16T21:39:18.001Z,0.3
2022-08-16T21:43:55.706Z,0.3
2022-08-16T21:48:55.340Z,0.3
2022-08-16T21:53:54.359Z,0.3
2022-08-16T21:58:55.462Z,0.3
2022-08-16T22:00:16.286Z,0.3
2022-08-16T22:05:15.895Z,0.3
2022-08-16T22:11:10.534Z,0.3
2022-08-16T22:15:14.846Z,0.3
2022-08-16T22:20:12.893Z,0.2
2022-08-16T22:25:19.218Z,0.3
2022-08-16T22:30:20.320Z,0.3
2022-08-16T22:35:19.030Z,0.3
2022-08-16T22:40:18.237Z,0.3
2022-08-16T22:45:17.467Z,0.3
2022-08-16T22:50:18.089Z,0.2
2022-08-16T22:55:14.939Z,0.3
2022-08-16T22:59:35.248Z,0.2
2022-08-16T23:04:34.845Z,0.3
2022-08-16T23:09:34.326Z,0.3
2022-08-16T23:14:33.992Z,0.3
2022-08-16T23:19:33.572Z,0.2
2022-08-16T23:24:57.761Z,0.3
2022-08-16T23:29:32.149Z,0.2
2022-08-16T23:34:30.700Z,0.3
2022-08-16T23:39:29.477Z,0.3
2022-08-16T23:45:00.674Z,0.3
2022-08-16T23:50:05.238Z,0.3
2022-08-16T23:54:26.912Z,0.3
2022-08-16T23:59:19.268Z,0.2
